createdAt,value
2018-07-13T00:01:54.987Z,74.00
2018-07-13T00:04:22.752Z,73.71
2018-07-13T00:06:50.731Z,73.92
2018-07-13T00:09:19.083Z,74.15
2018-07-13T00:11:46.825Z,74.24
2018-07-13T00:14:15.716Z,73.68
2018-07-13T00:16:44.102Z,74.31
2018-07-13T00:19:12.526Z,73.79
2018-07-13T00:21:40.246Z,73.75
2018-07-13T00:24:08.957Z,74.28
2018-07-13T00:26:37.610Z,73.97
2018-07-13T00:29:06.974Z,74.31
2018-07-13T00:31:35.968Z,74.34
2018-07-13T00:34:04.019Z,74.16
2018-07-13T00:36:31.887Z,74.31
2018-07-13T00:38:59.877Z,74.00
2018-07-13T00:41:27.601Z,74.02
2018-07-13T00:43:56.040Z,74.00
2018-07-13T00:46:23.939Z,73.94
2018-07-13T00:48:51.694Z,74.56
2018-07-13T00:51:20.020Z,74.48
2018-07-13T00:53:48.031Z,74.21
2018-07-13T00:56:15.771Z,74.43
2018-07-13T00:58:43.545Z,74.77
2018-07-13T01:01:12.983Z,74.18
2018-07-13T01:03:40.713Z,74.36
2018-07-13T01:06:08.441Z,74.25
2018-07-13T01:08:36.461Z,74.19
2018-07-13T01:11:04.229Z,74.16
2018-07-13T01:13:31.969Z,74.41
2018-07-13T01:15:59.702Z,74.49
2018-07-13T01:18:27.772Z,74.35
2018-07-13T01:20:55.486Z,74.44
2018-07-13T01:23:23.202Z,74.31
2018-07-13T01:25:50.947Z,74.40
2018-07-13T01:28:19.022Z,74.45
2018-07-13T01:30:46.755Z,74.95
2018-07-13T01:33:14.499Z,74.50
2018-07-13T01:35:42.223Z,74.52
2018-07-13T01:38:11.086Z,74.83
2018-07-13T01:40:38.838Z,74.57
2018-07-13T01:43:07.183Z,74.56
2018-07-13T01:45:35.731Z,74.50
2018-07-13T01:48:03.809Z,74.60
2018-07-13T01:50:31.573Z,75.37
2018-07-13T01:52:59.374Z,75.20
2018-07-13T01:55:27.127Z,74.75
2018-07-13T01:57:55.283Z,74.50
2018-07-13T02:00:23.027Z,74.95
2018-07-13T02:02:50.771Z,75.19
2018-07-13T02:05:18.515Z,74.70
2018-07-13T02:07:46.773Z,74.51
2018-07-13T02:10:14.519Z,74.66
2018-07-13T02:12:42.270Z,75.06
2018-07-13T02:15:10.020Z,74.69
2018-07-13T02:17:38.230Z,75.07
2018-07-13T02:20:05.974Z,74.77
2018-07-13T02:22:33.711Z,74.76
2018-07-13T02:25:01.815Z,75.40
2018-07-13T02:27:29.569Z,75.36
2018-07-13T02:29:57.286Z,74.77
2018-07-13T02:32:25.415Z,74.93
2018-07-13T02:34:53.210Z,75.32
2018-07-13T02:37:21.044Z,74.89
2018-07-13T02:39:48.774Z,75.38
2018-07-13T02:42:16.886Z,74.99
2018-07-13T02:44:44.635Z,75.45
2018-07-13T02:47:12.388Z,75.32
2018-07-13T02:49:40.136Z,74.82
2018-07-13T02:52:08.174Z,74.99
2018-07-13T02:54:35.898Z,75.22
2018-07-13T02:57:03.640Z,74.92
2018-07-13T02:59:31.383Z,74.93
2018-07-13T03:01:59.397Z,74.98
2018-07-13T03:04:27.158Z,74.89
2018-07-13T03:06:55.692Z,75.08
2018-07-13T03:09:23.423Z,75.04
2018-07-13T03:11:51.455Z,75.31
2018-07-13T03:14:19.187Z,74.65
2018-07-13T03:16:46.937Z,75.01
2018-07-13T03:19:14.670Z,75.32
2018-07-13T03:21:42.673Z,75.49
2018-07-13T03:24:10.429Z,75.02
2018-07-13T03:26:38.764Z,75.27
2018-07-13T03:29:06.480Z,75.06
2018-07-13T03:31:34.515Z,75.55
2018-07-13T03:34:02.239Z,75.61
2018-07-13T03:36:29.964Z,75.36
2018-07-13T03:38:58.007Z,75.34
2018-07-13T03:41:26.049Z,75.12
2018-07-13T03:43:53.783Z,75.57
2018-07-13T03:46:21.525Z,75.25
2018-07-13T03:48:49.245Z,75.54
2018-07-13T03:51:17.263Z,75.57
2018-07-13T03:53:45.000Z,75.21
2018-07-13T03:56:12.793Z,75.62
2018-07-13T03:58:40.541Z,75.55
2018-07-13T04:01:08.570Z,75.51
2018-07-13T04:03:36.338Z,75.44
2018-07-13T04:06:04.083Z,75.63
2018-07-13T04:08:32.103Z,75.25
2018-07-13T04:10:59.836Z,75.25
2018-07-13T04:13:27.588Z,75.21
2018-07-13T04:15:55.339Z,75.20
2018-07-13T04:18:24.584Z,75.37
2018-07-13T04:20:53.024Z,74.97
2018-07-13T04:23:21.669Z,75.36
2018-07-13T04:25:49.675Z,75.19
2018-07-13T04:28:17.486Z,75.59
2018-07-13T04:30:45.267Z,75.60
2018-07-13T04:33:13.808Z,75.42
2018-07-13T04:35:41.851Z,75.04
2018-07-13T04:38:09.636Z,75.68
2018-07-13T04:40:37.410Z,75.37
2018-07-13T04:43:05.441Z,74.93
2018-07-13T04:45:33.186Z,75.39
2018-07-13T04:48:01.884Z,75.20
2018-07-13T04:50:29.963Z,74.91
2018-07-13T04:52:57.700Z,74.86
2018-07-13T04:55:25.447Z,74.73
2018-07-13T04:57:55.158Z,74.72
2018-07-13T05:00:24.496Z,75.23
2018-07-13T05:02:52.379Z,74.71
2018-07-13T05:05:20.530Z,74.52
2018-07-13T05:07:49.208Z,74.85
2018-07-13T05:10:17.131Z,74.51
2018-07-13T05:12:45.205Z,74.78
2018-07-13T05:15:13.650Z,74.71
2018-07-13T05:17:41.378Z,74.47
2018-07-13T05:20:09.603Z,74.71
2018-07-13T05:22:37.338Z,74.21
2018-07-13T05:25:06.333Z,74.07
2018-07-13T05:27:35.224Z,74.06
2018-07-13T05:30:03.113Z,74.33
2018-07-13T05:32:31.084Z,74.28
2018-07-13T05:35:00.393Z,73.82
2018-07-13T05:37:28.159Z,73.84
2018-07-13T05:39:56.220Z,73.32
2018-07-13T05:42:24.615Z,73.76
2018-07-13T05:44:52.357Z,73.46
2018-07-13T05:47:20.189Z,73.82
2018-07-13T05:49:48.603Z,73.16
2018-07-13T05:52:16.746Z,73.20
2018-07-13T05:54:44.993Z,73.34
2018-07-13T05:57:13.177Z,73.21
2018-07-13T05:59:40.979Z,73.46
2018-07-13T06:02:08.816Z,73.83
2018-07-13T06:04:37.043Z,73.73
2018-07-13T06:07:05.824Z,73.91
2018-07-13T06:09:33.656Z,73.40
2018-07-13T06:12:01.965Z,73.60
2018-07-13T06:14:29.829Z,72.99
2018-07-13T06:16:57.597Z,72.90
2018-07-13T06:19:25.782Z,73.06
2018-07-13T06:21:53.763Z,73.22
2018-07-13T06:24:22.583Z,73.25
2018-07-13T06:26:50.802Z,73.75
2018-07-13T06:29:18.580Z,73.53
2018-07-13T06:31:46.792Z,73.75
2018-07-13T06:34:16.277Z,73.08
2018-07-13T06:36:44.021Z,73.58
2018-07-13T06:39:12.730Z,72.94
2018-07-13T06:41:40.896Z,73.20
2018-07-13T06:44:08.629Z,72.94
2018-07-13T06:46:36.382Z,72.84
2018-07-13T06:49:04.482Z,72.23
2018-07-13T06:51:32.244Z,72.18
2018-07-13T06:54:00.036Z,72.04
2018-07-13T06:56:28.142Z,71.68
2018-07-13T06:58:55.934Z,71.67
2018-07-13T07:01:23.671Z,72.05
2018-07-13T07:03:52.540Z,71.81
2018-07-13T07:06:21.287Z,71.22
2018-07-13T07:08:49.151Z,71.50
2018-07-13T07:11:17.381Z,71.01
2018-07-13T07:13:45.923Z,71.27
2018-07-13T07:16:13.690Z,70.78
2018-07-13T07:18:41.807Z,71.14
2018-07-13T07:21:09.671Z,70.80
2018-07-13T07:23:37.596Z,71.21
2018-07-13T07:26:06.250Z,70.88
2018-07-13T07:28:34.042Z,70.67
2018-07-13T07:31:02.464Z,70.89
2018-07-13T07:33:30.646Z,70.83
2018-07-13T07:35:58.389Z,70.81
2018-07-13T07:38:26.435Z,70.28
2018-07-13T07:40:54.589Z,70.40
2018-07-13T07:43:24.026Z,70.54
2018-07-13T07:45:51.787Z,70.50
2018-07-13T07:48:19.866Z,70.41
2018-07-13T07:50:47.633Z,70.00
2018-07-13T07:53:15.358Z,70.18
2018-07-13T07:55:43.403Z,70.12
2018-07-13T07:58:11.143Z,69.86
2018-07-13T08:00:38.901Z,69.80
2018-07-13T08:03:06.952Z,69.86
2018-07-13T08:05:34.770Z,69.69
2018-07-13T08:08:02.491Z,69.70
2018-07-13T08:10:30.554Z,69.32
2018-07-13T08:12:58.323Z,69.41
2018-07-13T08:15:26.658Z,69.49
2018-07-13T08:17:54.896Z,69.33
2018-07-13T08:20:22.638Z,68.71
2018-07-13T08:22:50.485Z,68.84
2018-07-13T08:25:18.779Z,68.88
2018-07-13T08:27:48.472Z,68.29
2018-07-13T08:30:16.726Z,68.40
2018-07-13T08:32:45.917Z,68.22
2018-07-13T08:35:13.678Z,68.57
2018-07-13T08:37:42.739Z,68.43
2018-07-13T08:40:10.829Z,68.00
2018-07-13T08:42:38.897Z,68.00
2018-07-13T08:45:06.861Z,68.25
2018-07-13T08:47:35.003Z,67.67
2018-07-13T08:50:03.508Z,67.55
2018-07-13T08:52:31.772Z,67.55
2018-07-13T08:54:59.555Z,67.52
2018-07-13T08:57:27.342Z,67.03
2018-07-13T08:59:57.002Z,67.48
2018-07-13T09:02:25.520Z,66.88
2018-07-13T09:04:53.675Z,66.60
2018-07-13T09:07:21.864Z,66.51
2018-07-13T09:09:50.221Z,66.95
2018-07-13T09:12:19.531Z,66.83
2018-07-13T09:14:47.731Z,66.20
2018-07-13T09:17:16.395Z,66.03
2018-07-13T09:19:44.152Z,66.27
2018-07-13T09:22:12.342Z,65.74
2018-07-13T09:24:41.703Z,65.62
2018-07-13T09:27:12.814Z,66.19
2018-07-13T09:29:40.905Z,65.78
2018-07-13T09:32:08.695Z,65.32
2018-07-13T09:34:36.470Z,64.86
2018-07-13T09:37:05.422Z,64.89
2018-07-13T09:39:33.244Z,65.25
2018-07-13T09:42:01.826Z,65.06
2018-07-13T09:44:29.963Z,64.47
2018-07-13T09:46:57.860Z,64.30
2018-07-13T09:49:29.603Z,64.12
2018-07-13T09:51:57.811Z,64.03
2018-07-13T09:54:25.900Z,63.83
2018-07-13T09:56:53.680Z,64.20
2018-07-13T09:59:23.237Z,63.89
2018-07-13T10:01:51.019Z,63.27
2018-07-13T10:04:18.797Z,63.57
2018-07-13T10:06:47.488Z,62.97
2018-07-13T10:11:36.966Z,62.72
2018-07-13T10:14:05.064Z,62.62
2018-07-13T10:16:45.721Z,62.13
2018-07-13T10:19:14.612Z,61.56
2018-07-13T10:21:42.630Z,61.80
2018-07-13T10:24:10.391Z,61.61
2018-07-13T10:26:38.826Z,61.03
2018-07-13T10:29:08.402Z,60.49
2018-07-13T10:31:41.569Z,60.13
2018-07-13T10:34:17.118Z,60.37
2018-07-13T10:36:45.401Z,59.81
2018-07-13T10:39:14.092Z,59.54
2018-07-13T10:41:41.825Z,59.55
2018-07-13T10:44:13.352Z,59.67
2018-07-13T10:46:41.281Z,58.93
2018-07-13T10:49:10.696Z,59.13
2018-07-13T10:51:39.266Z,58.84
2018-07-13T10:54:07.007Z,58.17
2018-07-13T10:56:34.795Z,58.51
2018-07-13T10:59:03.188Z,57.99
2018-07-13T11:01:37.271Z,57.83
2018-07-13T11:04:05.702Z,58.01
2018-07-13T11:06:33.779Z,57.44
2018-07-13T11:09:02.280Z,57.59
2018-07-13T11:11:30.031Z,56.67
2018-07-13T11:13:58.273Z,56.19
2018-07-13T11:16:30.714Z,55.87
2018-07-13T11:18:59.046Z,56.36
2018-07-13T11:21:27.090Z,56.15
2018-07-13T11:23:55.520Z,55.71
2018-07-13T11:26:24.155Z,55.36
2018-07-13T11:28:52.224Z,54.90
2018-07-13T11:31:21.658Z,54.87
2018-07-13T11:33:49.395Z,54.57
2018-07-13T11:36:17.445Z,54.04
2018-07-13T11:38:45.270Z,53.75
2018-07-13T11:41:13.023Z,53.52
2018-07-13T11:43:41.063Z,52.60
2018-07-13T11:46:08.810Z,52.99
2018-07-13T11:48:36.811Z,52.34
2018-07-13T11:51:04.873Z,52.08
2018-07-13T11:53:32.595Z,52.39
2018-07-13T11:56:02.249Z,52.07
2018-07-13T11:58:31.661Z,51.17
2018-07-13T12:00:59.768Z,50.74
2018-07-13T12:03:28.434Z,50.37
2018-07-13T12:05:56.510Z,50.22
2018-07-13T12:08:25.391Z,50.41
2018-07-13T12:10:53.595Z,50.16
2018-07-13T12:13:22.555Z,49.87
2018-07-13T12:15:52.593Z,49.63
2018-07-13T12:18:20.504Z,49.33
2018-07-13T12:20:49.546Z,49.17
2018-07-13T12:23:18.891Z,48.71
2018-07-13T12:25:46.640Z,49.16
2018-07-13T12:28:19.558Z,49.30
2018-07-13T12:30:53.300Z,48.72
2018-07-13T12:33:22.818Z,49.32
2018-07-13T12:35:54.235Z,49.30
2018-07-13T12:38:23.377Z,48.51
2018-07-13T12:43:30.375Z,49.21
2018-07-13T12:45:59.871Z,49.24
2018-07-13T12:48:35.573Z,48.63
2018-07-13T12:51:05.468Z,48.96
2018-07-13T12:53:34.503Z,48.61
2018-07-13T12:56:03.391Z,48.02
2018-07-13T12:58:31.505Z,47.33
2018-07-13T13:01:00.810Z,47.44
2018-07-13T13:03:28.551Z,46.88
2018-07-13T13:05:58.108Z,46.81
2018-07-13T13:08:27.330Z,47.38
2018-07-13T13:10:56.300Z,47.03
2018-07-13T13:13:25.441Z,46.97
2018-07-13T13:15:56.895Z,46.03
2018-07-13T13:18:24.671Z,46.32
2018-07-13T13:20:54.248Z,45.84
2018-07-13T13:23:24.488Z,45.71
2018-07-13T13:25:59.743Z,46.17
2018-07-13T13:28:29.175Z,45.25
2018-07-13T13:31:06.285Z,45.49
2018-07-13T13:33:37.706Z,45.42
2018-07-13T13:36:06.444Z,45.62
2018-07-13T13:38:34.220Z,45.72
2018-07-13T13:41:03.508Z,45.46
2018-07-13T13:43:31.362Z,45.10
2018-07-13T13:45:59.471Z,45.06
2018-07-13T13:48:28.232Z,44.12
2018-07-13T13:50:56.000Z,44.53
2018-07-13T13:53:24.717Z,44.39
2018-07-13T13:55:53.216Z,44.28
2018-07-13T13:58:22.607Z,43.99
2018-07-13T14:00:50.764Z,43.96
2018-07-13T14:03:18.511Z,43.34
2018-07-13T14:05:47.025Z,43.74
2018-07-13T14:08:16.483Z,43.12
2018-07-13T14:10:45.476Z,43.46
2018-07-13T14:13:14.791Z,43.52
2018-07-13T14:15:44.447Z,42.47
2018-07-13T14:18:13.030Z,42.61
2018-07-13T14:20:41.622Z,43.17
2018-07-13T14:23:10.427Z,43.02
2018-07-13T14:25:38.999Z,42.12
2018-07-13T14:28:06.772Z,42.85
2018-07-13T14:30:35.840Z,42.69
2018-07-13T14:33:03.648Z,42.06
2018-07-13T14:35:31.610Z,41.89
2018-07-13T14:38:00.692Z,42.75
2018-07-13T14:40:29.242Z,42.86
2018-07-13T14:42:57.873Z,42.07
2018-07-13T14:45:29.237Z,42.37
2018-07-13T14:47:57.671Z,41.58
2018-07-13T14:50:25.445Z,41.44
2018-07-13T14:52:58.344Z,42.26
2018-07-13T14:55:26.317Z,42.37
2018-07-13T14:57:55.633Z,41.08
2018-07-13T15:00:24.755Z,41.31
2018-07-13T15:02:53.466Z,41.93
2018-07-13T15:05:21.960Z,41.17
2018-07-13T15:07:50.067Z,40.84
2018-07-13T15:10:17.923Z,41.43
2018-07-13T15:12:45.869Z,41.17
2018-07-13T15:15:15.300Z,41.22
2018-07-13T15:17:44.129Z,41.26
2018-07-13T15:20:13.411Z,41.51
2018-07-13T15:22:43.268Z,41.90
2018-07-13T15:25:12.562Z,41.95
2018-07-13T15:27:40.438Z,41.05
2018-07-13T15:30:08.628Z,41.78
2018-07-13T15:32:37.037Z,41.79
2018-07-13T15:35:05.398Z,40.91
2018-07-13T15:37:35.439Z,40.67
2018-07-13T15:40:04.092Z,41.50
2018-07-13T15:42:32.808Z,41.06
2018-07-13T15:45:00.979Z,41.30
2018-07-13T15:47:29.867Z,40.60
2018-07-13T15:49:59.664Z,41.05
2018-07-13T15:52:29.274Z,41.19
2018-07-13T15:54:59.110Z,40.97
2018-07-13T15:57:26.910Z,40.42
2018-07-13T15:59:55.200Z,40.43
2018-07-13T16:02:23.012Z,40.67
2018-07-13T16:04:50.830Z,40.40
2018-07-13T16:07:20.167Z,40.37
2018-07-13T16:09:47.956Z,39.76
2018-07-13T16:12:15.713Z,40.21
2018-07-13T16:14:46.780Z,40.11
2018-07-13T16:17:14.519Z,39.38
2018-07-13T16:19:42.248Z,39.46
2018-07-13T16:22:10.294Z,39.53
2018-07-13T16:24:38.031Z,39.77
2018-07-13T16:27:06.266Z,39.09
2018-07-13T16:29:35.316Z,40.08
2018-07-13T16:32:03.054Z,39.42
2018-07-13T16:34:30.973Z,40.01
2018-07-13T16:37:01.490Z,39.76
2018-07-13T16:39:30.868Z,39.50
2018-07-13T16:41:58.645Z,39.71
2018-07-13T16:44:29.031Z,39.39
2018-07-13T16:46:56.827Z,39.76
2018-07-13T16:49:25.043Z,40.04
2018-07-13T16:51:53.115Z,39.95
2018-07-13T17:02:20.816Z,41.94
2018-07-13T17:04:48.626Z,42.47
2018-07-13T17:09:07.140Z,41.69
2018-07-13T17:11:35.811Z,41.93
2018-07-13T17:14:04.726Z,42.50
2018-07-13T17:16:33.534Z,42.24
2018-07-13T17:19:01.235Z,42.39
2018-07-13T17:21:31.280Z,42.40
2018-07-13T17:23:59.950Z,41.92
2018-07-13T17:26:27.679Z,42.27
2018-07-13T17:28:55.690Z,41.66
2018-07-13T17:31:23.370Z,41.59
2018-07-13T17:33:51.061Z,41.28
2018-07-13T17:36:19.636Z,42.00
2018-07-13T17:38:47.317Z,42.06
2018-07-13T17:41:15.057Z,41.93
2018-07-13T17:43:43.105Z,42.10
2018-07-13T17:46:10.814Z,41.54
2018-07-13T17:48:39.318Z,41.75
2018-07-13T17:51:07.492Z,41.46
2018-07-13T17:53:35.240Z,41.54
2018-07-13T17:56:03.567Z,41.53
2018-07-13T17:58:31.586Z,41.99
2018-07-13T18:00:59.384Z,41.43
2018-07-13T18:03:27.138Z,41.37
2018-07-13T18:05:55.126Z,42.02
2018-07-13T18:08:22.865Z,41.96
2018-07-13T18:10:50.987Z,41.60
2018-07-13T18:13:18.996Z,41.34
2018-07-13T18:15:46.706Z,41.37
2018-07-13T18:18:14.390Z,42.07
2018-07-13T18:20:42.442Z,41.54
2018-07-13T18:23:10.175Z,41.64
2018-07-13T18:25:37.891Z,42.04
2018-07-13T18:28:07.673Z,42.44
2018-07-13T18:30:35.410Z,42.04
2018-07-13T18:33:03.161Z,42.41
2018-07-13T18:35:35.323Z,42.74
2018-07-13T18:38:04.287Z,42.76
2018-07-13T18:40:33.899Z,42.83
2018-07-13T18:43:02.218Z,43.53
2018-07-13T18:45:31.834Z,43.50
2018-07-13T18:48:03.552Z,43.15
2018-07-13T18:50:33.208Z,43.42
2018-07-13T18:53:00.963Z,43.08
2018-07-13T18:55:29.129Z,43.18
2018-07-13T18:57:57.670Z,43.20
2018-07-13T19:00:27.810Z,43.71
2018-07-13T19:02:57.942Z,43.82
2018-07-13T19:05:26.480Z,44.24
2018-07-13T19:07:54.565Z,44.59
2018-07-13T19:10:24.103Z,43.96
2018-07-13T19:15:27.957Z,44.46
2018-07-13T19:17:55.893Z,44.98
2018-07-13T19:20:23.659Z,44.63
2018-07-13T19:22:51.839Z,45.53
2018-07-13T19:25:21.221Z,45.27
2018-07-13T19:27:53.582Z,46.13
2018-07-13T19:30:22.324Z,45.95
2018-07-13T19:32:50.788Z,46.65
2018-07-13T19:35:23.134Z,46.97
2018-07-13T19:37:52.550Z,47.38
2018-07-13T19:40:20.475Z,46.93
2018-07-13T19:42:51.707Z,47.29
2018-07-13T19:45:20.694Z,47.63
2018-07-13T19:47:51.042Z,47.64
2018-07-13T19:50:20.418Z,48.32
2018-07-13T19:52:52.988Z,48.29
2018-07-13T19:55:20.957Z,49.11
2018-07-13T19:57:50.133Z,49.38
2018-07-13T20:00:18.335Z,49.19
2018-07-13T20:02:46.111Z,49.88
2018-07-13T20:05:16.591Z,49.64
2018-07-13T20:07:46.401Z,49.73
2018-07-13T20:10:14.397Z,50.57
2018-07-13T20:13:50.032Z,50.86
2018-07-13T20:16:22.492Z,50.67
2018-07-13T20:18:51.394Z,51.26
2018-07-13T20:21:20.718Z,50.57
2018-07-13T20:23:51.310Z,51.55
2018-07-13T20:26:22.374Z,52.17
2018-07-13T20:28:55.745Z,51.65
2018-07-13T20:31:25.788Z,52.71
2018-07-13T20:33:54.693Z,52.77
2018-07-13T20:36:23.956Z,52.61
2018-07-13T20:38:53.377Z,52.39
2018-07-13T20:41:21.775Z,52.94
2018-07-13T20:43:54.576Z,53.27
2018-07-13T20:46:22.663Z,52.98
2018-07-13T20:48:50.360Z,53.42
2018-07-13T20:51:18.953Z,53.63
2018-07-13T20:53:47.655Z,53.95
2018-07-13T20:56:16.387Z,54.22
2018-07-13T20:58:44.487Z,53.83
2018-07-13T21:01:12.259Z,54.59
2018-07-13T21:03:40.000Z,54.79
2018-07-13T21:06:10.232Z,54.50
2018-07-13T21:08:40.380Z,54.56
2018-07-13T21:11:10.253Z,54.35
2018-07-13T21:13:41.119Z,54.93
2018-07-13T21:16:11.230Z,55.01
2018-07-13T21:18:38.911Z,55.06
2018-07-13T21:21:06.950Z,55.02
2018-07-13T21:23:34.678Z,55.16
2018-07-13T21:26:05.454Z,55.16
2018-07-13T21:28:33.831Z,55.32
2018-07-13T21:31:01.687Z,55.96
2018-07-13T21:33:30.057Z,55.49
2018-07-13T21:35:58.690Z,56.13
2018-07-13T21:38:26.380Z,55.57
2018-07-13T21:40:55.618Z,55.85
2018-07-13T21:43:25.250Z,55.81
2018-07-13T21:45:54.632Z,56.31
2018-07-13T21:48:24.192Z,56.30
2018-07-13T21:50:53.236Z,56.49
2018-07-13T21:53:22.001Z,56.54
2018-07-13T21:58:25.535Z,56.32
2018-07-13T22:00:54.319Z,56.69
2018-07-13T22:03:22.687Z,56.61
2018-07-13T22:05:50.655Z,56.53
2018-07-13T22:08:18.386Z,57.06
2018-07-13T22:10:46.102Z,57.09
2018-07-13T22:13:14.138Z,56.86
2018-07-13T22:15:43.230Z,57.23
2018-07-13T22:18:11.586Z,57.08
2018-07-13T22:20:40.010Z,57.25
2018-07-13T22:23:08.286Z,57.53
2018-07-13T22:25:36.029Z,57.21
2018-07-13T22:28:04.022Z,57.63
2018-07-13T22:30:32.556Z,57.26
2018-07-13T22:33:01.247Z,57.40
2018-07-13T22:35:29.241Z,57.36
2018-07-13T22:37:56.954Z,57.82
2018-07-13T22:40:24.686Z,57.49
2018-07-13T22:42:52.481Z,58.00
2018-07-13T22:45:20.846Z,57.74
2018-07-13T22:47:48.844Z,57.77
2018-07-13T22:50:17.514Z,58.30
2018-07-13T22:52:45.941Z,58.17
2018-07-13T22:55:14.027Z,58.06
2018-07-13T22:57:41.691Z,57.90
2018-07-13T23:00:11.470Z,58.55
2018-07-13T23:02:39.484Z,58.14
2018-07-13T23:05:08.200Z,58.97
2018-07-13T23:07:36.489Z,58.66
2018-07-13T23:10:04.517Z,58.66
2018-07-13T23:12:32.229Z,58.83
2018-07-13T23:14:59.914Z,59.08
2018-07-13T23:17:27.900Z,58.86
2018-07-13T23:19:55.603Z,59.63
2018-07-13T23:22:23.287Z,59.35
2018-07-13T23:24:51.301Z,59.69
2018-07-13T23:27:19.525Z,59.28
2018-07-13T23:29:47.249Z,59.91
2018-07-13T23:32:15.246Z,59.47
2018-07-13T23:34:43.913Z,59.55
2018-07-13T23:37:11.641Z,59.57
2018-07-13T23:39:40.529Z,59.64
2018-07-13T23:42:08.217Z,59.74
2018-07-13T23:44:35.924Z,60.30
2018-07-13T23:47:03.952Z,60.13
2018-07-13T23:49:32.218Z,59.98
2018-07-13T23:51:59.910Z,60.05
2018-07-13T23:54:27.915Z,60.75
2018-07-13T23:56:55.582Z,60.20
2018-07-13T23:59:23.290Z,60.76
